Time;durP1;ratioP1;P1;durP2;ratioP2;P2;SDS_P1;SDS_P2;PMS_P1;PMS_P2;Temp;Humidity;BMP_temperature;BMP_pressure;BME280_temperature;BME280_humidity;BME280_pressure;Samples;Min_cycle;Max_cycle;Signal;HPM_P1;HPM_P2
2022/01/24 00:00:48;;;;;;;21.35;13.60;;;-0.20;99.90;;;;;;4950218;28;20027;-62
2022/01/24 00:03:13;;;;;;;19.88;14.15;;;-0.30;99.90;;;;;;4950450;29;20038;-62
2022/01/24 00:05:40;;;;;;;19.13;14.05;;;-0.40;99.90;;;;;;4951374;29;20042;-62
2022/01/24 00:08:06;;;;;;;19.42;14.10;;;-0.50;99.90;;;;;;4953447;29;20074;-61
2022/01/24 00:10:35;;;;;;;16.05;14.25;;;-0.50;99.90;;;;;;4950049;29;20049;-62
2022/01/24 00:15:54;;;;;;;19.75;15.02;;;-0.40;99.90;;;;;;4950003;29;20123;-62
2022/01/24 00:18:25;;;;;;;21.50;16.88;;;-0.50;99.90;;;;;;4950868;29;20419;-62
2022/01/24 00:26:46;;;;;;;17.75;13.73;;;-0.70;99.90;;;;;;4931346;29;20032;-62
2022/01/24 00:29:13;;;;;;;16.10;12.77;;;-0.50;99.90;;;;;;4932181;29;20027;-62
2022/01/24 00:31:38;;;;;;;21.83;15.93;;;-0.50;99.90;;;;;;4930674;29;20047;-62
2022/01/24 00:34:04;;;;;;;55.85;32.83;;;-0.50;99.90;;;;;;4931244;29;20036;-62
2022/01/24 00:36:30;;;;;;;40.70;26.42;;;-0.60;99.90;;;;;;4930556;28;20063;-61
2022/01/24 00:38:56;;;;;;;36.60;25.40;;;-0.10;99.90;;;;;;4931206;28;20115;-62
2022/01/24 00:41:22;;;;;;;29.15;21.60;;;-0.10;99.90;;;;;;4931144;29;20034;-62
2022/01/24 00:46:36;;;;;;;24.92;19.33;;;0.40;99.90;;;;;;4931292;29;20035;-62
2022/01/24 00:57:03;;;;;;;19.88;15.77;;;1.40;99.90;;;;;;4930980;29;20048;-62
2022/01/24 00:59:29;;;;;;;22.08;15.77;;;1.40;99.90;;;;;;4931060;29;20103;-62
2022/01/24 01:01:56;;;;;;;16.90;13.70;;;1.60;99.90;;;;;;4931608;29;20135;-61
2022/01/24 01:04:27;;;;;;;18.48;14.32;;;2.00;99.90;;;;;;4947051;29;20126;-61
2022/01/24 01:06:54;;;;;;;17.20;13.70;;;2.10;99.90;;;;;;4949349;29;20059;-61
2022/01/24 01:20:23;;;;;;;15.07;12.20;;;2.90;99.90;;;;;;4952671;29;20383;-61
2022/01/24 01:22:49;;;;;;;16.95;12.07;;;2.90;99.90;;;;;;4951124;28;20031;-61
2022/01/24 01:25:15;;;;;;;17.58;12.48;;;3.10;99.90;;;;;;4949288;29;20050;-62
2022/01/24 01:27:44;;;;;;;16.80;12.35;;;3.20;99.90;;;;;;4949071;29;20027;-62
2022/01/24 01:30:17;;;;;;;16.05;11.93;;;3.30;99.90;;;;;;4949290;28;20102;-62
2022/01/24 01:32:59;;;;;;;17.35;12.43;;;3.30;99.90;;;;;;4949945;28;20102;-60
2022/01/24 01:38:29;;;;;;;16.23;11.90;;;3.40;99.90;;;;;;4955160;29;20082;-61
2022/01/24 01:54:53;;;;;;;15.18;11.98;;;2.80;99.90;;;;;;4934212;29;20460;-61
2022/01/24 01:57:22;;;;;;;17.02;12.68;;;2.80;99.90;;;;;;4933748;29;20064;-61
2022/01/24 01:59:48;;;;;;;16.05;12.48;;;2.80;99.90;;;;;;4919354;29;20521;-62
2022/01/24 02:02:14;;;;;;;18.30;12.70;;;2.70;99.90;;;;;;4920326;29;20163;-62
2022/01/24 02:04:41;;;;;;;16.92;13.07;;;2.70;99.90;;;;;;4933803;29;20027;-61
2022/01/24 02:07:12;;;;;;;16.67;12.68;;;2.80;99.90;;;;;;4927212;29;20513;-61
2022/01/24 02:09:40;;;;;;;15.23;13.00;;;2.90;99.90;;;;;;4925103;29;20540;-62
2022/01/24 02:12:07;;;;;;;16.95;12.32;;;3.00;99.90;;;;;;4933949;29;20036;-61
2022/01/24 02:14:37;;;;;;;15.93;12.15;;;2.90;99.90;;;;;;4918279;29;20028;-62
2022/01/24 02:17:11;;;;;;;15.38;12.65;;;3.00;99.90;;;;;;4921049;29;20684;-61
2022/01/24 02:25:00;;;;;;;16.33;13.20;;;2.80;99.90;;;;;;4952265;29;20027;-62
2022/01/24 02:27:32;;;;;;;16.73;13.43;;;2.70;99.90;;;;;;4952205;28;20031;-62
2022/01/24 02:32:43;;;;;;;19.70;14.10;;;2.60;99.90;;;;;;4933307;29;20074;-61
2022/01/24 02:35:09;;;;;;;17.40;13.23;;;2.60;99.90;;;;;;4934599;29;20079;-62
2022/01/24 02:37:35;;;;;;;17.35;13.23;;;2.60;99.90;;;;;;4932889;29;20464;-62
2022/01/24 02:40:09;;;;;;;21.70;13.80;;;2.50;99.90;;;;;;4932965;29;20392;-62
2022/01/24 02:48:26;;;;;;;17.90;14.15;;;2.50;99.90;;;;;;4875946;29;20045;-62
2022/01/24 02:51:27;;;;;;;18.98;14.95;;;2.40;99.90;;;;;;4876205;29;20044;-62
2022/01/24 02:53:52;;;;;;;21.55;14.68;;;2.50;99.90;;;;;;4876769;29;20041;-61
2022/01/24 02:56:18;;;;;;;19.98;15.15;;;2.40;99.90;;;;;;4876613;29;20056;-62
2022/01/24 02:58:44;;;;;;;17.67;15.32;;;2.50;99.90;;;;;;4877410;29;20057;-61
2022/01/24 03:01:10;;;;;;;16.60;14.82;;;2.50;99.90;;;;;;4876048;29;20040;-62
2022/01/24 03:03:36;;;;;;;18.67;15.20;;;2.50;99.90;;;;;;4876369;29;20045;-62
2022/01/24 03:06:05;;;;;;;18.13;14.95;;;2.40;99.90;;;;;;4876308;29;20045;-61
2022/01/24 03:08:31;;;;;;;18.65;15.95;;;2.40;99.90;;;;;;4876362;29;20040;-61
2022/01/24 03:10:59;;;;;;;18.55;16.42;;;2.40;99.90;;;;;;4894740;29;20033;-61
2022/01/24 03:15:54;;;;;;;20.65;15.73;;;2.40;99.90;;;;;;4891715;29;20041;-61
2022/01/24 03:18:20;;;;;;;20.60;16.15;;;2.40;99.90;;;;;;4900944;29;20498;-62
2022/01/24 03:20:46;;;;;;;20.17;16.75;;;2.50;99.90;;;;;;4936315;29;20028;-61
2022/01/24 03:23:16;;;;;;;22.17;16.70;;;2.40;99.90;;;;;;4954704;29;20379;-61
2022/01/24 03:25:43;;;;;;;17.58;15.25;;;2.30;99.90;;;;;;4951270;29;20039;-62
2022/01/24 03:28:10;;;;;;;20.75;16.13;;;2.30;99.90;;;;;;4951039;29;20031;-61
2022/01/24 03:30:37;;;;;;;20.05;15.88;;;2.40;99.90;;;;;;4950816;29;20453;-60
2022/01/24 03:33:04;;;;;;;20.52;16.95;;;2.40;99.90;;;;;;4951026;28;20032;-62
2022/01/24 03:35:30;;;;;;;21.42;16.30;;;2.20;99.90;;;;;;4953284;28;20043;-62
2022/01/24 03:37:56;;;;;;;20.83;16.95;;;2.30;99.90;;;;;;4951986;29;20081;-62
2022/01/24 03:40:22;;;;;;;24.48;17.10;;;2.20;99.90;;;;;;4950686;28;20030;-62
2022/01/24 03:42:48;;;;;;;20.08;17.15;;;2.10;99.90;;;;;;4951019;29;20506;-61
2022/01/24 03:45:15;;;;;;;20.38;16.40;;;2.00;99.90;;;;;;4950728;28;20046;-62
2022/01/24 03:48:07;;;;;;;20.38;16.05;;;2.00;99.90;;;;;;4951573;28;20040;-61
2022/01/24 03:50:27;;;;;;;19.60;16.58;;;2.00;99.90;;;;;;4952262;29;20051;-62
2022/01/24 03:52:53;;;;;;;20.17;16.77;;;2.10;99.90;;;;;;4952002;29;20038;-62
2022/01/24 03:55:19;;;;;;;22.38;17.00;;;2.10;99.90;;;;;;4949960;29;20043;-62
2022/01/24 03:57:44;;;;;;;23.13;17.23;;;2.00;99.90;;;;;;4950623;28;20082;-61
2022/01/24 04:00:10;;;;;;;22.52;17.30;;;2.10;99.90;;;;;;4949860;29;20050;-62
2022/01/24 04:02:37;;;;;;;21.90;17.90;;;2.10;99.90;;;;;;4951722;28;20391;-61
2022/01/24 04:05:03;;;;;;;23.02;17.98;;;2.10;99.90;;;;;;4952868;29;20489;-62
2022/01/24 04:07:28;;;;;;;20.92;16.95;;;2.10;99.90;;;;;;4950008;28;20031;-62
2022/01/24 04:09:54;;;;;;;19.90;16.73;;;2.00;99.90;;;;;;4949982;29;20404;-62
2022/01/24 04:12:25;;;;;;;21.52;17.67;;;2.00;99.90;;;;;;4951372;29;20567;-62
2022/01/24 04:22:11;;;;;;;23.42;18.02;;;2.00;99.90;;;;;;4949634;29;20039;-60
2022/01/24 04:24:37;;;;;;;24.23;18.58;;;2.00;99.90;;;;;;4949876;28;20015;-61
2022/01/24 04:27:04;;;;;;;21.02;18.08;;;2.00;99.90;;;;;;4950178;29;20023;-62
2022/01/24 04:29:29;;;;;;;22.08;17.73;;;2.00;99.90;;;;;;4952355;28;20378;-62
2022/01/24 04:31:55;;;;;;;22.73;18.40;;;2.10;99.90;;;;;;4951339;28;20038;-61
2022/01/24 04:34:21;;;;;;;22.27;18.05;;;2.10;99.90;;;;;;4949383;29;20027;-61
2022/01/24 04:36:47;;;;;;;23.33;18.48;;;2.10;99.90;;;;;;4949672;29;20126;-62
2022/01/24 04:39:13;;;;;;;23.25;18.20;;;2.00;99.90;;;;;;4949804;29;20035;-62
2022/01/24 04:41:43;;;;;;;21.80;18.33;;;2.10;99.90;;;;;;4951105;28;20062;-60
2022/01/24 04:54:46;;;;;;;25.08;18.92;;;2.00;99.90;;;;;;4920470;29;20497;-61
2022/01/24 04:57:21;;;;;;;25.08;18.67;;;2.00;99.90;;;;;;4919069;29;20114;-60
2022/01/24 04:59:48;;;;;;;23.08;18.67;;;2.00;99.90;;;;;;4916164;29;20414;-61
2022/01/24 05:02:19;;;;;;;23.83;18.65;;;1.90;99.90;;;;;;4928020;29;20127;-61
2022/01/24 05:04:45;;;;;;;22.13;18.70;;;1.80;99.90;;;;;;4926807;29;20035;-61
2022/01/24 05:07:13;;;;;;;25.10;19.48;;;2.00;99.90;;;;;;4927168;29;20382;-61
2022/01/24 05:09:47;;;;;;;23.75;18.67;;;1.90;99.90;;;;;;4926464;29;20024;-61
2022/01/24 05:25:51;;;;;;;24.17;19.15;;;1.80;99.90;;;;;;4913777;29;20179;-61
2022/01/24 05:28:17;;;;;;;23.55;18.95;;;1.80;99.90;;;;;;4913114;29;20177;-61
2022/01/24 05:30:43;;;;;;;22.80;18.80;;;1.80;99.90;;;;;;4914052;29;20099;-61
2022/01/24 05:33:09;;;;;;;26.98;20.42;;;1.90;99.90;;;;;;4912853;29;20584;-61
2022/01/24 05:35:35;;;;;;;25.40;19.90;;;1.80;99.90;;;;;;4914002;29;20403;-61
2022/01/24 05:38:01;;;;;;;25.10;19.80;;;1.70;99.90;;;;;;4915115;29;20044;-62
2022/01/24 05:40:27;;;;;;;24.75;20.38;;;1.60;99.90;;;;;;4912384;29;20028;-61
2022/01/24 05:42:52;;;;;;;25.55;20.67;;;1.50;99.90;;;;;;4912433;29;20132;-61
2022/01/24 05:45:18;;;;;;;27.02;21.55;;;1.40;99.90;;;;;;4912559;29;20044;-62
2022/01/24 05:47:44;;;;;;;28.63;22.70;;;1.30;99.90;;;;;;4912762;29;20034;-61
2022/01/24 05:50:10;;;;;;;29.40;21.90;;;1.40;99.90;;;;;;4915524;29;20115;-61
2022/01/24 05:52:36;;;;;;;29.92;24.25;;;1.30;99.90;;;;;;4912276;29;20035;-61
2022/01/24 05:55:03;;;;;;;33.10;24.20;;;1.20;99.90;;;;;;4912131;29;20040;-61
2022/01/24 05:57:29;;;;;;;32.25;23.70;;;1.20;99.90;;;;;;4933068;29;20035;-61
2022/01/24 05:59:55;;;;;;;31.38;22.95;;;1.30;99.90;;;;;;4952523;29;20067;-62
2022/01/24 06:02:21;;;;;;;29.27;23.80;;;1.10;99.90;;;;;;4955500;28;20063;-61
2022/01/24 06:04:47;;;;;;;32.00;24.60;;;0.90;99.90;;;;;;4953508;29;20036;-62
2022/01/24 06:07:13;;;;;;;32.70;25.27;;;1.00;99.90;;;;;;4952318;28;20034;-61
2022/01/24 06:09:39;;;;;;;29.08;23.30;;;1.00;99.90;;;;;;4953867;29;20098;-61
2022/01/24 06:12:05;;;;;;;30.42;23.88;;;1.10;99.90;;;;;;4952800;29;20099;-61
2022/01/24 06:14:31;;;;;;;35.08;25.50;;;1.00;99.90;;;;;;4954488;28;20082;-61
2022/01/24 06:16:56;;;;;;;31.05;23.30;;;1.00;99.90;;;;;;4953739;29;20039;-61
2022/01/24 06:19:22;;;;;;;33.10;23.33;;;0.90;99.90;;;;;;4951841;28;20034;-62
2022/01/24 06:21:48;;;;;;;28.48;22.85;;;0.90;99.90;;;;;;4951367;28;20106;-61
2022/01/24 06:24:14;;;;;;;31.38;23.80;;;0.90;99.90;;;;;;4952430;29;20042;-61
2022/01/24 06:26:40;;;;;;;29.65;23.77;;;0.80;99.90;;;;;;4953115;28;20171;-62
2022/01/24 06:29:06;;;;;;;34.65;24.42;;;0.70;99.90;;;;;;4954618;29;20031;-61
2022/01/24 06:31:31;;;;;;;35.72;25.45;;;0.60;99.90;;;;;;4951937;29;20026;-61
2022/01/24 06:33:57;;;;;;;32.70;26.35;;;0.60;99.90;;;;;;4951520;29;20015;-61
2022/01/24 06:36:24;;;;;;;36.25;28.63;;;0.50;99.90;;;;;;4952218;28;20500;-61
2022/01/24 06:38:50;;;;;;;38.95;32.05;;;0.40;99.90;;;;;;4952022;28;20404;-60
2022/01/24 06:41:25;;;;;;;57.30;43.65;;;0.20;99.90;;;;;;4955939;28;20031;-61
2022/01/24 06:43:51;;;;;;;41.40;32.45;;;0.20;99.90;;;;;;4954397;29;20038;-61
2022/01/24 06:46:16;;;;;;;44.10;34.22;;;0.30;99.90;;;;;;4951213;29;20027;-61
2022/01/24 06:48:42;;;;;;;42.42;31.17;;;0.30;99.90;;;;;;4952937;28;20448;-61
2022/01/24 06:51:10;;;;;;;38.63;30.02;;;0.10;99.90;;;;;;4951977;29;20066;-61
2022/01/24 06:53:40;;;;;;;33.45;26.08;;;0.10;99.90;;;;;;4953361;28;20028;-61
2022/01/24 06:56:06;;;;;;;34.25;26.50;;;0.20;99.90;;;;;;4954278;29;20045;-61
2022/01/24 06:58:33;;;;;;;42.08;31.45;;;0.40;99.90;;;;;;4951126;28;20051;-61
2022/01/24 07:00:59;;;;;;;38.80;29.92;;;0.50;99.90;;;;;;4950785;29;20035;-61
2022/01/24 07:03:26;;;;;;;52.70;37.90;;;0.40;99.90;;;;;;4951765;29;20154;-61
2022/01/24 07:05:52;;;;;;;43.72;33.85;;;0.30;99.90;;;;;;4951181;29;20110;-61
2022/01/24 07:08:17;;;;;;;46.85;38.17;;;0.50;99.90;;;;;;4955357;28;20433;-61
2022/01/24 07:10:43;;;;;;;46.75;37.85;;;0.20;99.90;;;;;;4951334;29;20031;-61
2022/01/24 07:13:10;;;;;;;43.92;35.20;;;0.20;99.90;;;;;;4950929;28;20085;-61
2022/01/24 07:15:45;;;;;;;42.85;33.10;;;0.40;99.90;;;;;;4950640;28;20066;-61
2022/01/24 07:20:39;;;;;;;50.85;40.72;;;0.50;99.90;;;;;;4952434;29;20035;-60
2022/01/24 07:23:05;;;;;;;48.88;35.22;;;0.50;99.90;;;;;;4953900;29;20117;-62
2022/01/24 07:25:31;;;;;;;44.67;34.15;;;0.50;99.90;;;;;;4951062;29;20373;-61
2022/01/24 07:27:58;;;;;;;43.53;31.35;;;0.60;99.90;;;;;;4952367;29;20038;-61
2022/01/24 07:30:24;;;;;;;42.15;32.95;;;0.70;99.90;;;;;;4950644;29;20027;-61
2022/01/24 07:32:50;;;;;;;37.63;29.23;;;0.50;99.90;;;;;;4950894;28;20501;-61
2022/01/24 07:35:16;;;;;;;37.33;27.55;;;0.50;99.90;;;;;;4954888;28;20519;-61
2022/01/24 07:37:42;;;;;;;31.75;25.75;;;0.60;99.90;;;;;;4938899;28;20067;-61
2022/01/24 07:40:10;;;;;;;35.85;27.45;;;0.90;99.90;;;;;;4961013;28;20027;-61
2022/01/24 07:45:24;;;;;;;38.33;28.65;;;0.90;99.90;;;;;;4950087;29;20034;-61
2022/01/24 07:47:50;;;;;;;34.70;26.42;;;0.90;99.90;;;;;;4934825;29;20055;-61
2022/01/24 07:50:23;;;;;;;37.17;26.23;;;1.10;99.90;;;;;;4954754;29;20110;-61
2022/01/24 07:52:49;;;;;;;35.33;26.15;;;1.30;99.90;;;;;;4951294;29;20396;-61
2022/01/24 07:55:15;;;;;;;34.05;25.65;;;2.00;99.90;;;;;;4949984;29;20024;-61
2022/01/24 07:57:40;;;;;;;25.55;21.92;;;3.10;99.90;;;;;;4949973;29;20054;-60
2022/01/24 08:00:07;;;;;;;28.45;20.67;;;4.00;99.90;;;;;;4949718;28;20038;-61
2022/01/24 08:02:34;;;;;;;23.17;19.08;;;4.50;99.90;;;;;;4952200;28;20027;-61
2022/01/24 08:04:59;;;;;;;21.85;17.02;;;5.10;99.90;;;;;;4952467;29;20050;-61
2022/01/24 08:07:25;;;;;;;19.00;16.95;;;5.80;99.90;;;;;;4952092;28;20058;-61
2022/01/24 08:09:51;;;;;;;18.88;16.20;;;5.70;99.90;;;;;;4949544;28;20106;-61
2022/01/24 08:12:18;;;;;;;20.48;17.27;;;5.60;99.90;;;;;;4950341;29;20027;-61
2022/01/24 08:14:44;;;;;;;18.52;15.77;;;6.10;99.90;;;;;;4950600;28;20024;-60
2022/01/24 08:17:09;;;;;;;18.52;15.23;;;6.20;99.90;;;;;;4953709;29;20054;-60
2022/01/24 08:19:35;;;;;;;21.95;15.85;;;6.70;99.90;;;;;;4950167;29;20028;-60
2022/01/24 08:22:01;;;;;;;18.45;15.80;;;6.70;99.90;;;;;;4950215;29;20131;-60
2022/01/24 08:24:27;;;;;;;18.58;14.65;;;7.00;99.90;;;;;;4949661;29;20015;-60
2022/01/24 08:26:54;;;;;;;17.50;14.63;;;7.40;99.90;;;;;;4949231;29;20047;-61
2022/01/24 08:29:20;;;;;;;18.23;15.02;;;7.80;99.90;;;;;;4953162;28;20027;-60
2022/01/24 08:31:45;;;;;;;17.58;14.55;;;7.80;99.90;;;;;;4950477;29;20121;-61
2022/01/24 08:34:11;;;;;;;16.20;13.63;;;7.60;99.90;;;;;;4950031;29;20489;-60
2022/01/24 08:36:37;;;;;;;16.70;13.82;;;8.60;99.90;;;;;;4949967;29;20492;-59
2022/01/24 08:39:07;;;;;;;17.23;13.88;;;8.60;99.90;;;;;;4949808;29;20019;-60
2022/01/24 08:41:58;;;;;;;15.32;13.73;;;8.50;99.90;;;;;;4951724;28;20106;-59
2022/01/24 08:47:06;;;;;;;15.88;12.50;;;9.20;99.90;;;;;;4952189;29;20031;-59
2022/01/24 08:49:31;;;;;;;15.98;14.05;;;9.50;99.90;;;;;;4949393;29;20122;-58
2022/01/24 08:51:59;;;;;;;16.58;13.23;;;9.70;99.90;;;;;;4949766;28;20118;-60
2022/01/24 08:54:26;;;;;;;16.80;12.95;;;10.60;99.90;;;;;;4949474;28;20028;-60
2022/01/24 08:56:52;;;;;;;17.15;12.95;;;10.30;99.90;;;;;;4949149;28;20590;-60
2022/01/24 08:59:17;;;;;;;15.23;12.80;;;9.80;99.90;;;;;;4953298;28;20050;-60
2022/01/24 09:01:46;;;;;;;16.05;12.90;;;10.80;99.90;;;;;;4951012;29;20027;-60
2022/01/24 09:04:12;;;;;;;14.88;11.93;;;11.00;99.90;;;;;;4949725;29;20030;-60
2022/01/24 09:06:38;;;;;;;17.50;12.77;;;10.70;99.90;;;;;;4949427;29;20034;-61
2022/01/24 09:09:05;;;;;;;16.85;12.02;;;10.70;99.90;;;;;;4949525;28;20032;-61
2022/01/24 09:11:35;;;;;;;16.33;12.15;;;11.20;99.90;;;;;;4951600;28;20459;-61
2022/01/24 09:14:04;;;;;;;16.48;12.45;;;12.20;99.90;;;;;;4951842;29;20027;-60
2022/01/24 09:16:30;;;;;;;16.52;12.25;;;12.40;99.90;;;;;;4947896;29;20047;-61
2022/01/24 09:18:55;;;;;;;15.45;12.73;;;11.90;99.90;;;;;;4949099;29;20388;-61
2022/01/24 09:21:23;;;;;;;14.65;11.77;;;10.50;99.90;;;;;;4949429;29;20066;-60
2022/01/24 09:23:48;;;;;;;16.45;12.25;;;11.70;99.90;;;;;;4949253;28;20016;-60
2022/01/24 09:26:14;;;;;;;16.02;13.73;;;11.70;99.90;;;;;;4953330;28;20028;-61
2022/01/24 09:28:40;;;;;;;15.57;12.40;;;11.70;99.90;;;;;;4949292;29;20515;-60
2022/01/24 09:31:06;;;;;;;17.25;12.63;;;12.40;99.90;;;;;;4949147;29;20043;-61
2022/01/24 09:33:32;;;;;;;15.88;12.98;;;11.60;99.90;;;;;;4949395;28;20396;-61
2022/01/24 09:36:01;;;;;;;17.73;12.90;;;12.00;99.90;;;;;;4949171;29;20509;-61
2022/01/24 09:38:30;;;;;;;17.77;12.27;;;13.10;99.90;;;;;;4951138;29;20102;-61
2022/01/24 09:40:57;;;;;;;14.18;12.05;;;14.10;99.90;;;;;;4950336;28;20039;-61
2022/01/24 09:43:23;;;;;;;13.40;11.30;;;14.30;99.50;;;;;;4948987;29;20158;-60
2022/01/24 09:45:49;;;;;;;14.05;11.07;;;14.80;98.80;;;;;;4949186;29;20499;-60
2022/01/24 09:48:16;;;;;;;13.20;10.75;;;14.70;98.20;;;;;;4948989;29;20035;-60
2022/01/24 09:50:45;;;;;;;13.75;10.43;;;15.40;97.80;;;;;;4949376;29;20404;-60
2022/01/24 09:53:13;;;;;;;13.45;11.30;;;14.70;97.80;;;;;;4952363;29;20492;-63
2022/01/24 09:55:39;;;;;;;13.43;10.50;;;13.40;99.10;;;;;;4948725;28;20035;-60
2022/01/24 09:58:05;;;;;;;12.15;10.40;;;13.40;99.60;;;;;;4951018;28;20039;-60
2022/01/24 10:00:31;;;;;;;13.05;10.68;;;14.20;98.60;;;;;;4952056;29;20027;-60
2022/01/24 10:02:58;;;;;;;14.07;10.70;;;14.20;97.50;;;;;;4953765;29;20027;-60
2022/01/24 10:05:37;;;;;;;11.70;10.27;;;14.60;97.20;;;;;;4955100;28;20098;-60
2022/01/24 10:08:24;;;;;;;14.43;10.30;;;14.90;97.10;;;;;;4955192;29;20038;-60
2022/01/24 10:10:53;;;;;;;14.13;10.20;;;15.20;96.70;;;;;;4954530;29;20504;-61
2022/01/24 10:16:29;;;;;;;11.75;10.30;;;14.40;96.80;;;;;;4952310;29;20101;-60
2022/01/24 10:19:09;;;;;;;12.52;10.10;;;13.80;98.90;;;;;;4952073;28;20035;-60
2022/01/24 10:21:43;;;;;;;12.23;9.70;;;14.30;97.40;;;;;;4951882;29;20031;-60
2022/01/24 10:24:11;;;;;;;12.00;9.85;;;15.30;97.10;;;;;;4952177;28;20035;-59
2022/01/24 10:26:38;;;;;;;12.88;9.80;;;15.50;96.10;;;;;;4953572;28;20488;-60
2022/01/24 10:29:10;;;;;;;12.88;9.63;;;15.90;95.60;;;;;;4954401;29;20027;-61
2022/01/24 10:31:45;;;;;;;12.55;9.57;;;15.90;95.60;;;;;;4949222;28;20058;-61
2022/01/24 10:34:33;;;;;;;11.88;9.90;;;16.30;94.90;;;;;;4951657;28;20039;-61
2022/01/24 10:37:00;;;;;;;13.18;9.32;;;15.60;95.20;;;;;;4951533;29;20599;-60
2022/01/24 10:39:43;;;;;;;12.73;9.00;;;16.90;95.30;;;;;;4951336;29;20496;-60
2022/01/24 10:44:48;;;;;;;13.23;9.38;;;16.10;94.70;;;;;;4936911;29;20082;-60
2022/01/24 10:47:26;;;;;;;12.27;8.95;;;15.50;94.80;;;;;;4955578;28;20110;-61
2022/01/24 10:49:55;;;;;;;10.05;8.55;;;16.60;94.50;;;;;;4954245;29;20063;-60
2022/01/24 10:52:33;;;;;;;11.68;8.88;;;16.00;94.50;;;;;;4951386;28;20122;-60
2022/01/24 10:55:17;;;;;;;11.23;8.65;;;15.60;94.90;;;;;;4951248;28;20024;-59
2022/01/24 10:57:46;;;;;;;9.40;8.23;;;16.40;94.70;;;;;;4949206;28;20035;-62
2022/01/24 11:00:22;;;;;;;15.07;8.00;;;16.00;94.60;;;;;;4953246;28;20113;-60
2022/01/24 11:02:53;;;;;;;9.80;8.48;;;15.80;94.50;;;;;;4934970;29;20102;-61
2022/01/24 11:05:23;;;;;;;9.68;7.70;;;16.20;94.60;;;;;;4954765;28;20070;-62
2022/01/24 11:07:59;;;;;;;8.52;7.40;;;15.90;94.70;;;;;;4952521;28;20074;-61
2022/01/24 11:10:28;;;;;;;10.07;7.38;;;16.00;95.00;;;;;;4950914;28;20027;-60
2022/01/24 11:12:55;;;;;;;9.10;7.10;;;16.20;94.30;;;;;;4949985;28;20708;-61
2022/01/24 11:15:22;;;;;;;9.95;7.57;;;16.00;94.50;;;;;;4951470;28;20035;-60
2022/01/24 11:17:48;;;;;;;11.50;8.18;;;16.10;94.40;;;;;;4935373;29;20029;-59
2022/01/24 11:20:18;;;;;;;8.90;7.88;;;15.40;95.80;;;;;;4954893;28;20102;-61
2022/01/24 11:22:51;;;;;;;11.90;8.10;;;16.40;95.10;;;;;;4951098;29;20031;-60
2022/01/24 11:25:17;;;;;;;11.60;7.60;;;16.80;93.50;;;;;;4951040;28;20035;-61
2022/01/24 11:27:47;;;;;;;9.55;6.95;;;16.60;94.70;;;;;;4950933;29;20028;-61
2022/01/24 11:30:22;;;;;;;10.63;7.45;;;16.60;94.30;;;;;;4950863;28;20019;-61
2022/01/24 11:32:54;;;;;;;9.02;7.03;;;16.20;94.90;;;;;;4935780;29;20051;-61
2022/01/24 11:35:54;;;;;;;10.23;6.82;;;17.10;94.40;;;;;;4954167;28;20034;-61
2022/01/24 11:38:34;;;;;;;8.43;6.90;;;15.70;95.10;;;;;;4936699;29;20043;-61
2022/01/24 11:41:24;;;;;;;8.82;6.47;;;16.00;95.30;;;;;;4951689;28;20530;-63
2022/01/24 11:43:59;;;;;;;8.13;6.95;;;16.30;95.00;;;;;;4952492;28;20512;-61
2022/01/24 11:46:47;;;;;;;9.60;6.75;;;15.80;95.00;;;;;;4950709;28;20035;-61
2022/01/24 11:49:14;;;;;;;8.43;6.68;;;16.00;94.60;;;;;;4950080;28;20055;-62
2022/01/24 11:51:43;;;;;;;8.60;7.05;;;15.90;95.90;;;;;;4949744;28;20452;-61
2022/01/24 11:54:31;;;;;;;10.77;6.28;;;16.20;94.80;;;;;;4950753;28;20567;-61
2022/01/24 11:57:21;;;;;;;9.90;6.70;;;17.10;94.70;;;;;;4936899;29;20039;-60
2022/01/24 11:59:51;;;;;;;8.77;6.78;;;16.50;95.20;;;;;;4936848;29;20051;-60
2022/01/24 12:02:24;;;;;;;8.43;6.88;;;16.60;94.20;;;;;;4950236;28;20106;-60
2022/01/24 12:05:00;;;;;;;8.87;6.40;;;16.50;95.70;;;;;;4967128;28;20492;-60
2022/01/24 12:07:39;;;;;;;9.20;6.63;;;16.90;93.50;;;;;;4950035;28;20027;-60
2022/01/24 12:10:24;;;;;;;6.82;5.60;;;15.80;95.40;;;;;;4950348;28;20059;-60
2022/01/24 12:12:56;;;;;;;6.80;5.55;;;15.20;95.50;;;;;;4950080;28;20031;-61
2022/01/24 12:15:50;;;;;;;7.72;5.90;;;16.20;95.50;;;;;;4949698;28;20441;-62
2022/01/24 12:18:42;;;;;;;9.10;6.68;;;17.00;94.40;;;;;;4949977;28;20023;-63
2022/01/24 12:21:10;;;;;;;9.35;5.63;;;17.60;94.90;;;;;;4936182;29;20044;-62
2022/01/24 12:23:41;;;;;;;8.75;5.50;;;17.70;93.90;;;;;;4951484;28;20139;-62
2022/01/24 12:26:14;;;;;;;8.32;6.53;;;17.50;92.90;;;;;;4952794;29;20027;-63
2022/01/24 12:28:42;;;;;;;10.77;7.95;;;17.30;93.00;;;;;;4949568;29;20094;-61
2022/01/24 12:31:17;;;;;;;7.78;6.97;;;15.90;95.60;;;;;;4949353;29;20031;-62
2022/01/24 12:34:04;;;;;;;6.60;5.43;;;16.60;95.10;;;;;;4950286;28;20476;-61
2022/01/24 12:36:39;;;;;;;6.38;5.55;;;17.20;94.00;;;;;;4870573;29;20061;-62
2022/01/24 12:39:11;;;;;;;5.88;5.05;;;17.00;93.40;;;;;;4857539;29;20084;-62
2022/01/24 12:41:44;;;;;;;6.20;5.07;;;15.70;94.90;;;;;;4857155;29;20061;-61
2022/01/24 12:46:16;;;;;;;6.00;4.90;;;16.70;93.60;;;;;;4861991;29;20081;-61
2022/01/24 12:46:55;;;;;;;6.55;5.32;;;15.00;95.00;;;;;;4859216;29;20053;-62
2022/01/24 12:49:21;;;;;;;6.47;5.30;;;16.30;95.20;;;;;;4860988;29;20061;-61
2022/01/24 12:51:48;;;;;;;7.07;5.18;;;16.90;93.80;;;;;;4861441;29;20021;-61
2022/01/24 12:54:16;;;;;;;5.40;4.65;;;16.90;93.30;;;;;;4861148;29;20033;-63
2022/01/24 12:56:42;;;;;;;7.40;4.70;;;17.10;93.60;;;;;;4857899;29;20094;-60
2022/01/24 12:59:08;;;;;;;6.85;4.55;;;17.00;92.50;;;;;;4861410;29;20495;-61
2022/01/24 13:01:37;;;;;;;6.28;4.28;;;17.00;93.10;;;;;;4861069;29;20469;-60
2022/01/24 13:04:12;;;;;;;5.57;4.32;;;17.20;93.20;;;;;;4861411;29;20025;-62
2022/01/24 13:06:43;;;;;;;5.40;4.22;;;16.90;94.20;;;;;;4861472;29;20522;-60
2022/01/24 13:09:25;;;;;;;7.90;5.30;;;17.10;92.90;;;;;;4859867;29;22852;-62
2022/01/24 13:11:59;;;;;;;6.50;5.22;;;16.50;94.60;;;;;;4862592;29;20577;-62
2022/01/24 13:14:41;;;;;;;5.57;4.25;;;16.50;95.00;;;;;;4929191;29;20028;-60
2022/01/24 13:25:26;;;;;;;4.30;3.80;;;15.30;95.80;;;;;;4944221;29;20035;-61
2022/01/24 13:27:54;;;;;;;8.85;6.63;;;16.10;94.20;;;;;;4946753;28;20122;-62
2022/01/24 13:30:42;;;;;;;10.48;6.78;;;16.40;93.80;;;;;;4945238;29;20079;-62
2022/01/24 13:33:12;;;;;;;4.82;3.80;;;16.20;94.70;;;;;;4947605;29;20070;-61
2022/01/24 13:35:40;;;;;;;6.13;3.70;;;15.20;95.00;;;;;;4947795;28;20066;-62
2022/01/24 13:38:07;;;;;;;6.57;4.05;;;15.10;94.10;;;;;;4950114;29;20099;-61
2022/01/24 13:40:39;;;;;;;5.45;4.07;;;15.50;95.30;;;;;;4950185;29;20078;-62
2022/01/24 13:43:06;;;;;;;5.93;4.10;;;15.40;93.90;;;;;;4950889;29;20119;-62
2022/01/24 13:45:34;;;;;;;4.85;3.28;;;15.80;94.50;;;;;;4952883;28;20015;-62
2022/01/24 13:48:02;;;;;;;5.43;4.22;;;16.00;94.20;;;;;;4952775;28;20066;-62
2022/01/24 13:50:28;;;;;;;5.38;4.82;;;16.00;94.00;;;;;;4955382;28;20166;-61
2022/01/24 13:52:54;;;;;;;4.60;3.30;;;16.10;94.40;;;;;;4954462;28;20110;-61
2022/01/24 13:55:22;;;;;;;3.97;2.95;;;16.20;93.40;;;;;;4952495;28;20035;-60
2022/01/24 13:57:51;;;;;;;3.70;2.85;;;16.00;91.70;;;;;;4953928;28;20178;-61
2022/01/24 14:00:23;;;;;;;4.28;3.00;;;15.90;92.90;;;;;;4952732;28;20023;-62
2022/01/24 14:02:50;;;;;;;4.93;3.22;;;15.80;92.70;;;;;;4936914;29;20085;-60
2022/01/24 14:05:16;;;;;;;6.07;3.67;;;16.00;93.50;;;;;;4956091;29;20035;-61
2022/01/24 14:07:42;;;;;;;3.58;2.40;;;15.90;94.20;;;;;;4952023;29;20046;-60
2022/01/24 14:10:11;;;;;;;9.63;8.25;;;15.90;93.50;;;;;;4952110;28;20166;-61
2022/01/24 14:12:45;;;;;;;4.85;3.10;;;15.70;93.80;;;;;;4952294;28;20031;-61
2022/01/24 14:15:28;;;;;;;3.83;3.03;;;15.60;93.60;;;;;;4952075;29;20031;-59
2022/01/24 14:20:43;;;;;;;87.53;78.10;;;15.50;93.40;;;;;;4952407;28;20050;-63
2022/01/24 14:23:40;;;;;;;12.18;10.15;;;15.10;93.40;;;;;;4956257;28;20053;-62
2022/01/24 14:26:17;;;;;;;3.67;3.17;;;14.80;94.00;;;;;;4954973;29;20035;-61
2022/01/24 14:28:43;;;;;;;5.20;3.15;;;15.30;94.30;;;;;;4952243;28;20035;-61
2022/01/24 14:31:14;;;;;;;4.35;2.50;;;15.50;93.90;;;;;;4951444;29;20657;-60
2022/01/24 14:33:42;;;;;;;3.00;2.58;;;15.50;93.80;;;;;;4952128;29;20031;-63
2022/01/24 14:36:16;;;;;;;6.38;2.78;;;15.30;93.90;;;;;;4953197;28;20042;-64
2022/01/24 14:38:43;;;;;;;5.65;4.22;;;15.10;94.60;;;;;;4952262;28;20034;-63
2022/01/24 14:41:14;;;;;;;14.85;13.25;;;15.20;94.50;;;;;;4954094;29;20449;-61
2022/01/24 14:46:38;;;;;;;5.50;3.30;;;14.90;94.90;;;;;;4953064;29;20098;-63
2022/01/24 14:49:12;;;;;;;5.65;3.80;;;14.90;94.70;;;;;;4951567;28;20051;-62
2022/01/24 14:51:40;;;;;;;11.05;8.27;;;14.90;94.70;;;;;;4951461;28;20027;-61